Paradise, Canada
Current Conditions -  °F | °C
As of 6:00 AM on Monday 24 Nov 2014 (Local Time) from CYQX Reporting Station
Few Clouds Few Clouds  
Wind Chill: -13°   Ceiling: Unl
Heat Index: -6°   Visibility: 20mi
Dew Point: -10°   Wind: 14mph
Humidity: 74%   Direction: 280°W
Pressure: 30.15"   Gusts: 22mph
Location:  49.37°N, 55.33°W
Report Text: CYQX 240900Z 28012G19KT 20SM FEW230 M06/M10 A3015 RMK CI2 SLP220
Loading
Personal Weather Stations






























Interactive Weather Map New forecast layout! Learn more

10-Day Weather Forecast

Advertisements
Track Severe Weather on mobile